createdAt,value
2017-10-09T00:00:19.362Z,4.50
2017-10-09T00:05:20.204Z,4.73
2017-10-09T00:10:21.069Z,5.17
2017-10-09T00:15:21.920Z,4.10
2017-10-09T00:20:22.751Z,2.67
2017-10-09T00:25:23.580Z,4.77
2017-10-09T00:30:24.444Z,5.03
2017-10-09T00:35:25.303Z,2.90
2017-10-09T00:40:26.132Z,2.97
2017-10-09T00:45:26.967Z,4.20
2017-10-09T00:50:27.817Z,2.33
2017-10-09T00:55:28.680Z,5.50
2017-10-09T01:00:29.520Z,2.87
2017-10-09T01:05:30.346Z,2.90
2017-10-09T01:10:31.194Z,5.20
2017-10-09T01:15:32.052Z,2.97
2017-10-09T01:20:32.891Z,3.80
2017-10-09T01:25:33.751Z,3.47
2017-10-09T01:30:34.619Z,5.67
2017-10-09T01:35:35.455Z,4.10
2017-10-09T01:40:36.294Z,3.70
2017-10-09T01:45:37.138Z,6.90
2017-10-09T01:50:38.012Z,2.53
2017-10-09T01:55:38.839Z,2.90
2017-10-09T02:00:39.674Z,2.13
2017-10-09T02:05:40.511Z,2.80
2017-10-09T02:10:41.336Z,2.77
2017-10-09T02:15:42.184Z,2.53
2017-10-09T02:20:43.034Z,2.60
2017-10-09T02:25:43.900Z,6.47
2017-10-09T02:30:44.767Z,2.00
2017-10-09T02:35:45.607Z,2.43
2017-10-09T02:40:46.444Z,2.70
2017-10-09T02:45:47.291Z,3.50
2017-10-09T02:50:48.144Z,3.40
2017-10-09T02:55:48.991Z,2.10
2017-10-09T03:00:49.845Z,2.40
2017-10-09T03:05:50.679Z,2.00
2017-10-09T03:10:51.514Z,2.80
2017-10-09T03:15:52.365Z,3.40
2017-10-09T03:20:53.214Z,3.60
2017-10-09T03:25:54.064Z,3.20
2017-10-09T03:30:54.915Z,2.53
2017-10-09T03:35:55.764Z,4.20
2017-10-09T03:40:56.631Z,2.60
2017-10-09T03:45:57.477Z,3.90
2017-10-09T03:50:58.313Z,3.57
2017-10-09T03:55:59.159Z,3.20
2017-10-09T04:01:00.012Z,2.60
2017-10-09T04:06:00.863Z,4.47
2017-10-09T04:11:01.723Z,4.33
2017-10-09T04:16:02.559Z,2.00
2017-10-09T04:21:03.427Z,2.77
2017-10-09T04:26:04.274Z,2.37
2017-10-09T04:31:05.123Z,1.70
2017-10-09T04:36:05.975Z,2.17
2017-10-09T04:41:06.811Z,1.40
2017-10-09T04:46:07.636Z,2.43
2017-10-09T04:51:08.519Z,3.77
2017-10-09T04:56:09.362Z,1.67
2017-10-09T05:01:10.194Z,1.70
2017-10-09T05:06:11.070Z,2.10
2017-10-09T05:11:11.939Z,2.73
2017-10-09T05:16:12.780Z,3.23
2017-10-09T05:21:13.633Z,2.40
2017-10-09T05:26:14.507Z,1.70
2017-10-09T05:31:15.348Z,3.60
2017-10-09T05:36:16.193Z,2.10
2017-10-09T05:41:17.034Z,1.73
2017-10-09T05:46:17.867Z,2.60
2017-10-09T05:51:18.704Z,1.90
2017-10-09T05:56:19.530Z,2.23
2017-10-09T06:01:20.370Z,1.37
2017-10-09T06:06:21.196Z,1.30
2017-10-09T06:11:22.043Z,1.57
2017-10-09T06:16:22.891Z,2.00
2017-10-09T06:21:23.720Z,1.50
2017-10-09T06:26:24.574Z,2.00
2017-10-09T06:31:25.427Z,1.33
2017-10-09T06:36:26.255Z,2.10
2017-10-09T06:41:27.097Z,1.50
2017-10-09T06:46:27.959Z,2.30
2017-10-09T06:51:28.792Z,1.57
2017-10-09T06:56:29.615Z,1.13
2017-10-09T07:01:30.491Z,1.90
2017-10-09T07:06:31.347Z,3.40
2017-10-09T07:11:32.195Z,4.63
2017-10-09T07:16:33.091Z,5.80
2017-10-09T07:21:33.951Z,12.80
2017-10-09T07:26:34.804Z,35.97
2017-10-09T07:31:35.654Z,29.53
2017-10-09T07:36:36.487Z,30.73
2017-10-09T07:41:37.324Z,40.07
2017-10-09T07:46:38.173Z,31.23
2017-10-09T07:51:39.037Z,32.93
2017-10-09T07:56:39.887Z,34.37
2017-10-09T08:01:40.727Z,29.57
2017-10-09T08:06:41.562Z,37.97
2017-10-09T08:11:42.391Z,30.20
2017-10-09T08:16:43.226Z,25.63
2017-10-09T08:21:44.068Z,25.20
2017-10-09T08:26:44.904Z,24.67
2017-10-09T08:31:45.739Z,24.47
2017-10-09T08:36:46.582Z,18.60
2017-10-09T08:41:47.423Z,20.40
2017-10-09T08:46:48.250Z,17.47
2017-10-09T08:51:49.145Z,20.87
2017-10-09T08:56:49.996Z,19.97
2017-10-09T09:01:50.841Z,24.83
2017-10-09T09:06:51.731Z,38.27
2017-10-09T09:11:52.657Z,32.57
2017-10-09T09:16:53.496Z,25.10
2017-10-09T09:21:54.331Z,22.57
2017-10-09T09:26:55.200Z,26.80
2017-10-09T09:31:56.028Z,23.67
2017-10-09T09:36:56.866Z,24.17
2017-10-09T09:41:57.714Z,23.40
2017-10-09T09:46:58.558Z,23.70
2017-10-09T09:51:59.388Z,20.50
2017-10-09T09:57:00.247Z,22.30
2017-10-09T10:02:01.095Z,22.60
2017-10-09T10:07:01.958Z,18.33
2017-10-09T10:12:02.793Z,25.17
2017-10-09T10:17:03.637Z,23.53
2017-10-09T10:22:04.487Z,26.00
2017-10-09T10:27:05.355Z,21.90
2017-10-09T10:32:06.210Z,19.37
2017-10-09T10:37:07.085Z,17.00
2017-10-09T10:42:07.937Z,23.97
2017-10-09T10:47:08.775Z,17.00
2017-10-09T10:52:09.642Z,16.93
2017-10-09T10:57:10.498Z,18.13
2017-10-09T11:02:11.335Z,20.50
2017-10-09T11:07:12.187Z,21.83
2017-10-09T11:12:13.048Z,17.63
2017-10-09T11:17:13.894Z,19.43
2017-10-09T11:22:14.753Z,12.73
2017-10-09T11:27:15.617Z,15.40
2017-10-09T11:32:16.475Z,16.50
2017-10-09T11:37:17.315Z,11.33
2017-10-09T11:42:18.184Z,12.23
2017-10-09T11:47:19.047Z,19.03
2017-10-09T11:52:19.892Z,13.33
2017-10-09T11:57:20.763Z,12.23
2017-10-09T12:02:21.635Z,12.87
2017-10-09T12:07:22.513Z,12.97
2017-10-09T12:12:23.357Z,15.03
2017-10-09T12:17:24.212Z,19.40
2017-10-09T12:22:25.064Z,12.53
2017-10-09T12:27:25.905Z,11.43
2017-10-09T12:32:26.756Z,8.83
2017-10-09T12:37:27.595Z,10.97
2017-10-09T12:42:28.444Z,14.60
2017-10-09T12:47:29.295Z,11.57
2017-10-09T12:52:30.144Z,9.60
2017-10-09T12:57:30.975Z,9.80
2017-10-09T13:02:31.821Z,9.03
2017-10-09T13:07:32.699Z,12.67
2017-10-09T13:12:33.542Z,10.10
2017-10-09T13:17:34.403Z,8.40
2017-10-09T13:22:35.251Z,9.17
2017-10-09T13:27:36.095Z,9.03
2017-10-09T13:32:36.920Z,9.80
2017-10-09T13:37:37.774Z,7.40
2017-10-09T13:42:38.618Z,8.07
2017-10-09T13:47:39.485Z,8.27
2017-10-09T13:52:40.334Z,8.77
2017-10-09T13:57:41.188Z,10.00
2017-10-09T14:02:42.055Z,8.33
2017-10-09T14:07:42.912Z,7.83
2017-10-09T14:12:43.747Z,8.83
2017-10-09T14:17:44.617Z,6.80
2017-10-09T14:22:45.455Z,6.57
2017-10-09T14:27:46.290Z,8.03
2017-10-09T14:42:48.825Z,7.20
2017-10-09T14:47:49.669Z,6.13
2017-10-09T14:52:50.888Z,8.00
2017-10-09T14:57:51.735Z,5.90
2017-10-09T15:02:52.571Z,8.57
2017-10-09T15:07:53.433Z,6.77
2017-10-09T15:12:54.266Z,8.67
2017-10-09T15:17:55.137Z,8.57
2017-10-09T15:22:55.996Z,8.73
2017-10-09T15:27:56.843Z,8.00
2017-10-09T15:32:57.688Z,5.43
2017-10-09T15:37:58.553Z,6.50
2017-10-09T15:42:59.419Z,8.60
2017-10-09T15:48:00.284Z,6.37
2017-10-09T15:53:01.147Z,10.47
2017-10-09T15:58:01.980Z,6.63
2017-10-09T16:03:02.834Z,5.03
2017-10-09T16:08:03.707Z,6.47
2017-10-09T16:13:04.575Z,6.30
2017-10-09T16:18:05.460Z,5.50
2017-10-09T16:23:06.311Z,6.40
2017-10-09T16:28:07.176Z,7.20
2017-10-09T16:33:08.027Z,6.13
2017-10-09T16:38:09.376Z,6.77
2017-10-09T16:43:10.244Z,5.27
2017-10-09T16:48:11.109Z,5.93
2017-10-09T16:53:11.975Z,5.03
2017-10-09T16:58:12.840Z,6.70
2017-10-09T17:03:13.700Z,6.40
2017-10-09T17:08:14.584Z,13.57
2017-10-09T17:13:15.449Z,15.00
2017-10-09T17:18:16.295Z,16.13
2017-10-09T17:23:17.161Z,14.77
2017-10-09T17:28:18.138Z,20.07
2017-10-09T17:33:18.987Z,23.07
2017-10-09T17:38:19.876Z,21.43
2017-10-09T17:43:20.797Z,26.87
2017-10-09T17:48:21.687Z,22.23
2017-10-09T17:53:22.556Z,20.20
2017-10-09T17:58:23.424Z,23.17
2017-10-09T18:03:24.260Z,18.77
2017-10-09T18:08:25.123Z,18.20
2017-10-09T18:13:26.012Z,22.77
2017-10-09T18:18:26.884Z,20.93
2017-10-09T18:23:27.757Z,15.57
2017-10-09T18:28:28.612Z,15.00
2017-10-09T18:33:29.491Z,19.63
2017-10-09T18:38:30.409Z,19.43
2017-10-09T18:43:31.273Z,16.00
2017-10-09T18:48:32.178Z,17.27
2017-10-09T18:53:33.050Z,13.43
2017-10-09T18:58:33.935Z,15.90
2017-10-09T19:03:34.830Z,14.10
2017-10-09T19:08:35.744Z,14.37
2017-10-09T19:13:37.005Z,13.50
2017-10-09T19:18:37.912Z,17.27
2017-10-09T19:23:38.811Z,13.73
2017-10-09T19:28:39.678Z,16.57
2017-10-09T19:33:40.573Z,11.70
2017-10-09T19:38:41.424Z,18.90
2017-10-09T19:43:42.319Z,24.50
2017-10-09T19:48:43.183Z,20.07
2017-10-09T19:53:44.056Z,18.80
2017-10-09T19:58:44.919Z,18.53
2017-10-09T20:03:45.784Z,18.07
2017-10-09T20:08:46.643Z,21.40
2017-10-09T20:13:47.521Z,17.37
2017-10-09T20:18:48.423Z,21.30
2017-10-09T20:23:49.306Z,19.70
2017-10-09T20:28:50.156Z,18.43
2017-10-09T20:33:51.013Z,17.50
2017-10-09T20:38:51.899Z,13.77
2017-10-09T20:43:52.748Z,18.83
2017-10-09T20:48:53.668Z,22.73
2017-10-09T20:53:54.518Z,17.13
2017-10-09T20:58:55.369Z,20.20
2017-10-09T21:03:56.245Z,26.63
2017-10-09T21:08:57.132Z,25.40
2017-10-09T21:13:57.993Z,28.37
2017-10-09T21:18:58.883Z,24.50
2017-10-09T21:23:59.728Z,29.57
2017-10-09T21:29:00.565Z,28.13
2017-10-09T21:34:01.471Z,32.60
2017-10-09T21:39:02.350Z,30.03
2017-10-09T21:44:03.192Z,29.17
2017-10-09T21:49:04.115Z,31.10
2017-10-09T21:54:04.996Z,31.87
2017-10-09T21:59:05.843Z,27.90
2017-10-09T22:04:06.715Z,27.63
2017-10-09T22:09:07.568Z,31.93
2017-10-09T22:14:08.431Z,25.50
2017-10-09T22:19:09.300Z,33.70
2017-10-09T22:24:10.135Z,29.03
2017-10-09T22:29:11.005Z,29.43
2017-10-09T22:34:11.857Z,28.93
2017-10-09T22:39:12.704Z,25.87
2017-10-09T22:44:13.552Z,26.03
2017-10-09T22:49:14.403Z,31.30
2017-10-09T22:54:15.245Z,28.20
2017-10-09T22:59:16.116Z,25.33
2017-10-09T23:04:16.985Z,19.47
2017-10-09T23:09:17.860Z,27.60
2017-10-09T23:14:18.714Z,25.13
2017-10-09T23:19:19.556Z,24.97
2017-10-09T23:24:20.415Z,25.97
2017-10-09T23:29:21.246Z,21.30
2017-10-09T23:34:22.111Z,20.60
2017-10-09T23:39:22.981Z,23.10
2017-10-09T23:44:23.852Z,23.33
2017-10-09T23:49:24.712Z,18.40
2017-10-09T23:54:25.591Z,20.37
2017-10-09T23:59:26.436Z,19.83
